createdAt,value
2017-11-28T00:02:01.487Z,10.90
2017-11-28T00:04:29.535Z,10.90
2017-11-28T00:06:58.425Z,10.90
2017-11-28T00:09:27.270Z,10.90
2017-11-28T00:11:55.374Z,10.90
2017-11-28T00:14:23.472Z,10.90
2017-11-28T00:16:52.331Z,10.80
2017-11-28T00:19:20.487Z,10.80
2017-11-28T00:21:48.556Z,10.80
2017-11-28T00:24:16.639Z,10.80
2017-11-28T00:26:44.762Z,10.80
2017-11-28T00:29:12.851Z,10.80
2017-11-28T00:31:40.955Z,10.80
2017-11-28T00:34:09.070Z,10.80
2017-11-28T00:36:37.927Z,10.70
2017-11-28T00:39:06.015Z,10.70
2017-11-28T00:41:34.134Z,10.70
2017-11-28T00:44:02.299Z,10.70
2017-11-28T00:46:30.484Z,10.70
2017-11-28T00:48:58.603Z,10.70
2017-11-28T00:51:26.768Z,10.70
2017-11-28T00:53:54.847Z,10.60
2017-11-28T00:56:22.960Z,10.60
2017-11-28T00:58:51.062Z,10.60
2017-11-28T01:01:19.083Z,10.60
2017-11-28T01:03:47.909Z,10.60
2017-11-28T01:06:15.970Z,10.60
2017-11-28T01:08:44.058Z,10.60
2017-11-28T01:11:12.137Z,10.60
2017-11-28T01:13:40.250Z,10.50
2017-11-28T01:16:09.113Z,10.50
2017-11-28T01:18:37.599Z,10.50
2017-11-28T01:21:05.711Z,10.50
2017-11-28T01:23:34.565Z,10.50
2017-11-28T01:26:02.715Z,10.50
2017-11-28T01:28:30.819Z,10.50
2017-11-28T01:30:58.915Z,10.50
2017-11-28T01:33:27.795Z,10.50
2017-11-28T01:35:55.881Z,10.50
2017-11-28T01:38:23.984Z,10.40
2017-11-28T01:40:52.098Z,10.50
2017-11-28T01:43:20.231Z,10.50
2017-11-28T01:45:48.322Z,10.40
2017-11-28T01:48:16.418Z,10.40
2017-11-28T01:50:44.515Z,10.40
2017-11-28T01:53:13.385Z,10.40
2017-11-28T01:55:41.513Z,10.40
2017-11-28T01:58:09.633Z,10.40
2017-11-28T02:00:37.713Z,10.40
2017-11-28T02:03:06.540Z,10.40
2017-11-28T02:05:34.865Z,10.40
2017-11-28T02:08:03.004Z,10.40
2017-11-28T02:10:31.099Z,10.40
2017-11-28T02:12:59.211Z,10.30
2017-11-28T02:15:28.090Z,10.30
2017-11-28T02:17:56.951Z,10.30
2017-11-28T02:20:25.034Z,10.30
2017-11-28T02:22:53.141Z,10.30
2017-11-28T02:25:22.023Z,10.30
2017-11-28T02:27:50.949Z,10.20
2017-11-28T02:30:19.042Z,10.20
2017-11-28T02:32:47.889Z,10.20
2017-11-28T02:35:15.995Z,10.20
2017-11-28T02:37:44.127Z,10.20
2017-11-28T02:40:12.985Z,10.20
2017-11-28T02:42:41.106Z,10.20
2017-11-28T02:45:09.224Z,10.20
2017-11-28T02:47:37.341Z,10.20
2017-11-28T02:50:10.930Z,10.20
2017-11-28T02:52:39.835Z,10.10
2017-11-28T02:58:16.046Z,10.10
2017-11-28T03:00:46.838Z,10.10
2017-11-28T03:03:14.942Z,10.10
2017-11-28T03:05:43.052Z,10.10
2017-11-28T03:08:11.401Z,10.10
2017-11-28T03:10:57.107Z,10.10
2017-11-28T03:13:26.057Z,10.00
2017-11-28T03:16:08.971Z,10.00
2017-11-28T03:18:44.510Z,10.00
2017-11-28T03:21:17.246Z,10.00
2017-11-28T03:23:56.090Z,10.00
2017-11-28T03:26:25.979Z,10.00
2017-11-28T03:28:59.821Z,10.00
2017-11-28T03:31:37.855Z,10.00
2017-11-28T03:34:06.947Z,10.00
2017-11-28T03:36:35.827Z,10.00
2017-11-28T03:39:03.993Z,9.90
2017-11-28T03:41:32.863Z,10.00
2017-11-28T03:44:00.975Z,9.90
2017-11-28T03:46:35.620Z,9.90
2017-11-28T03:49:04.678Z,9.90
2017-11-28T03:51:33.577Z,9.90
2017-11-28T03:54:02.466Z,9.90
2017-11-28T03:56:31.342Z,9.90
2017-11-28T03:59:00.262Z,9.90
2017-11-28T04:01:28.378Z,9.90
2017-11-28T04:03:56.491Z,9.90
2017-11-28T04:06:25.382Z,9.90
2017-11-28T04:08:54.255Z,9.90
2017-11-28T04:11:22.339Z,9.80
2017-11-28T04:13:51.191Z,9.80
2017-11-28T04:16:19.283Z,9.80
2017-11-28T04:18:47.399Z,9.90
2017-11-28T04:21:15.494Z,9.80
2017-11-28T04:23:43.608Z,9.80
2017-11-28T04:26:11.702Z,9.90
2017-11-28T04:28:40.551Z,9.80
2017-11-28T04:31:08.651Z,9.90
2017-11-28T04:33:37.518Z,9.90
2017-11-28T04:36:05.628Z,9.80
2017-11-28T04:38:34.508Z,9.90
2017-11-28T04:41:03.396Z,9.90
2017-11-28T04:43:31.484Z,9.90
2017-11-28T04:45:59.582Z,9.90
2017-11-28T04:48:27.692Z,9.90
2017-11-28T04:50:55.834Z,9.90
2017-11-28T04:53:23.936Z,9.90
2017-11-28T04:55:52.073Z,9.90
2017-11-28T04:58:20.223Z,9.90
2017-11-28T05:00:48.334Z,9.90
2017-11-28T05:03:16.449Z,9.90
2017-11-28T05:05:45.326Z,9.90
2017-11-28T05:08:13.443Z,9.90
2017-11-28T05:10:41.547Z,9.90
2017-11-28T05:13:09.644Z,9.90
2017-11-28T05:15:37.829Z,9.80
2017-11-28T05:18:05.920Z,9.90
2017-11-28T05:20:34.770Z,9.80
2017-11-28T05:23:02.907Z,9.80
2017-11-28T05:25:31.011Z,9.80
2017-11-28T05:27:59.210Z,9.80
2017-11-28T05:30:27.407Z,9.80
2017-11-28T05:32:55.495Z,9.80
2017-11-28T05:35:23.575Z,9.80
2017-11-28T05:37:51.660Z,9.80
2017-11-28T05:40:19.809Z,9.80
2017-11-28T05:42:47.894Z,9.70
2017-11-28T05:45:15.991Z,9.70
2017-11-28T05:47:44.071Z,9.70
2017-11-28T05:50:12.174Z,9.70
2017-11-28T05:52:41.043Z,9.70
2017-11-28T05:55:09.141Z,9.70
2017-11-28T05:57:37.995Z,9.70
2017-11-28T06:00:06.224Z,9.70
2017-11-28T06:02:34.312Z,9.70
2017-11-28T06:05:02.396Z,9.70
2017-11-28T06:07:30.958Z,9.70
2017-11-28T06:09:59.082Z,9.70
2017-11-28T06:12:27.184Z,9.70
2017-11-28T06:14:55.290Z,9.70
2017-11-28T06:17:23.415Z,9.70
2017-11-28T06:19:52.347Z,9.70
2017-11-28T06:22:20.465Z,9.70
2017-11-28T06:24:48.566Z,9.80
2017-11-28T06:27:17.430Z,9.80
2017-11-28T06:29:45.590Z,9.80
2017-11-28T06:32:13.834Z,9.80
2017-11-28T06:34:41.935Z,9.80
2017-11-28T06:37:10.043Z,9.80
2017-11-28T06:39:38.918Z,9.70
2017-11-28T06:42:21.802Z,9.70
2017-11-28T06:44:49.886Z,9.80
2017-11-28T06:47:17.998Z,9.70
2017-11-28T06:49:46.874Z,9.70
2017-11-28T06:52:14.975Z,9.70
2017-11-28T06:54:43.095Z,9.70
2017-11-28T06:57:11.174Z,9.50
2017-11-28T06:59:39.910Z,9.40
2017-11-28T07:02:08.821Z,9.30
2017-11-28T07:04:37.683Z,9.20
2017-11-28T07:07:06.556Z,9.10
2017-11-28T07:09:34.686Z,9.10
2017-11-28T07:12:02.758Z,9.10
2017-11-28T07:14:30.888Z,9.00
2017-11-28T07:17:00.406Z,9.00
2017-11-28T07:19:28.596Z,9.00
2017-11-28T07:21:57.497Z,9.00
2017-11-28T07:24:26.199Z,9.00
2017-11-28T07:26:54.292Z,9.00
2017-11-28T07:29:22.393Z,8.90
2017-11-28T07:31:51.265Z,8.90
2017-11-28T07:34:20.156Z,8.80
2017-11-28T07:36:48.629Z,8.80
2017-11-28T07:39:17.297Z,8.80
2017-11-28T07:41:45.414Z,8.80
2017-11-28T07:44:14.260Z,8.80
2017-11-28T07:46:42.386Z,8.80
2017-11-28T07:49:10.570Z,8.90
2017-11-28T07:51:39.589Z,8.90
2017-11-28T07:54:07.782Z,9.00
2017-11-28T07:56:35.884Z,9.10
2017-11-28T07:59:04.772Z,9.30
2017-11-28T08:01:33.937Z,9.40
2017-11-28T08:04:02.867Z,9.40
2017-11-28T08:06:31.796Z,9.60
2017-11-28T08:09:00.828Z,9.60
2017-11-28T08:11:29.070Z,9.70
2017-11-28T08:13:57.583Z,9.70
2017-11-28T08:16:25.675Z,9.80
2017-11-28T08:18:55.345Z,10.10
2017-11-28T08:21:23.681Z,10.10
2017-11-28T08:23:52.656Z,10.30
2017-11-28T08:26:20.819Z,10.30
2017-11-28T08:28:48.982Z,10.50
2017-11-28T08:31:17.215Z,10.60
2017-11-28T08:33:45.371Z,10.70
2017-11-28T08:36:14.296Z,10.70
2017-11-28T08:38:43.385Z,10.70
2017-11-28T08:41:12.319Z,10.70
2017-11-28T08:43:40.464Z,10.80
2017-11-28T08:46:08.627Z,10.80
2017-11-28T08:48:36.783Z,10.80
2017-11-28T08:51:04.991Z,10.90
2017-11-28T08:53:33.102Z,11.00
2017-11-28T08:56:01.197Z,11.10
2017-11-28T08:58:29.318Z,11.20
2017-11-28T09:00:57.406Z,11.30
2017-11-28T09:03:25.528Z,11.40
2017-11-28T09:05:53.650Z,11.50
2017-11-28T09:08:21.738Z,11.70
2017-11-28T09:10:50.628Z,12.00
2017-11-28T09:13:18.724Z,12.00
2017-11-28T09:15:47.254Z,12.10
2017-11-28T09:18:15.568Z,12.20
2017-11-28T09:20:44.402Z,12.50
2017-11-28T09:23:13.403Z,12.50
2017-11-28T09:25:42.379Z,12.60
2017-11-28T09:28:10.523Z,12.70
2017-11-28T09:30:39.387Z,13.00
2017-11-28T09:33:07.483Z,13.00
2017-11-28T09:35:36.404Z,13.30
2017-11-28T09:38:04.542Z,13.30
2017-11-28T09:40:33.452Z,13.60
2017-11-28T09:43:01.547Z,13.60
2017-11-28T09:45:29.661Z,13.80
2017-11-28T09:47:57.758Z,14.00
2017-11-28T09:50:26.635Z,14.30
2017-11-28T09:52:54.768Z,14.20
2017-11-28T09:55:22.899Z,14.40
2017-11-28T09:57:51.738Z,14.60
2017-11-28T10:00:19.836Z,14.60
2017-11-28T10:02:47.946Z,14.80
2017-11-28T10:05:16.019Z,14.90
2017-11-28T10:07:44.123Z,15.10
2017-11-28T10:10:12.692Z,15.20
2017-11-28T10:12:42.429Z,15.40
2017-11-28T10:15:10.532Z,15.50
2017-11-28T10:17:39.459Z,15.70
2017-11-28T10:20:07.662Z,15.80
2017-11-28T10:22:36.463Z,15.80
2017-11-28T10:25:04.552Z,15.90
2017-11-28T10:27:33.489Z,16.00
2017-11-28T10:30:01.833Z,16.00
2017-11-28T10:32:32.091Z,16.10
2017-11-28T10:35:00.180Z,16.10
2017-11-28T10:37:28.319Z,16.10
2017-11-28T10:39:56.747Z,16.10
2017-11-28T10:42:25.112Z,16.10
2017-11-28T10:44:54.553Z,16.10
2017-11-28T10:47:22.646Z,16.10
2017-11-28T10:49:51.777Z,16.00
2017-11-28T10:52:19.906Z,16.00
2017-11-28T10:54:48.795Z,16.00
2017-11-28T10:57:17.762Z,15.90
2017-11-28T10:59:45.888Z,15.90
2017-11-28T11:02:14.144Z,15.90
2017-11-28T11:04:43.263Z,15.80
2017-11-28T11:07:11.320Z,15.80
2017-11-28T11:09:40.951Z,15.80
2017-11-28T11:12:09.872Z,15.80
2017-11-28T11:14:37.924Z,15.80
2017-11-28T11:17:06.465Z,15.80
2017-11-28T11:19:35.331Z,15.80
2017-11-28T11:22:03.378Z,15.80
2017-11-28T11:24:31.506Z,15.80
2017-11-28T11:27:00.949Z,15.70
2017-11-28T11:29:29.430Z,15.70
2017-11-28T11:31:57.560Z,15.60
2017-11-28T11:34:26.466Z,15.40
2017-11-28T11:36:56.260Z,15.30
2017-11-28T11:39:24.454Z,15.30
2017-11-28T11:41:52.682Z,15.20
2017-11-28T11:44:21.092Z,15.00
2017-11-28T11:46:49.968Z,14.90
2017-11-28T11:49:18.035Z,14.90
2017-11-28T11:51:46.918Z,14.80
2017-11-28T11:54:15.062Z,14.80
2017-11-28T11:56:44.001Z,14.70
2017-11-28T11:59:12.884Z,14.50
2017-11-28T12:01:41.000Z,14.50
2017-11-28T12:04:09.164Z,14.50
2017-11-28T12:06:37.255Z,14.40
2017-11-28T12:09:05.363Z,14.40
2017-11-28T12:11:33.519Z,14.30
2017-11-28T12:14:01.730Z,14.30
2017-11-28T12:16:30.786Z,14.20
2017-11-28T12:18:59.245Z,14.20
2017-11-28T12:21:28.283Z,14.20
2017-11-28T12:23:56.399Z,14.20
2017-11-28T12:26:24.750Z,14.20
2017-11-28T12:28:53.108Z,14.20
2017-11-28T12:31:21.575Z,14.10
2017-11-28T12:33:49.740Z,14.10
2017-11-28T12:36:18.371Z,14.10
2017-11-28T12:38:47.296Z,14.00
2017-11-28T12:41:16.099Z,14.00
2017-11-28T12:43:44.239Z,14.00
2017-11-28T12:46:13.130Z,13.90
2017-11-28T12:48:42.003Z,13.80
2017-11-28T12:51:10.108Z,13.80
2017-11-28T12:53:38.199Z,13.70
2017-11-28T12:56:06.330Z,13.70
2017-11-28T12:58:35.325Z,13.60
2017-11-28T13:01:05.548Z,13.50
2017-11-28T13:03:33.724Z,13.50
2017-11-28T13:06:02.623Z,13.40
2017-11-28T13:08:30.997Z,13.40
2017-11-28T13:10:59.863Z,13.30
2017-11-28T13:13:27.983Z,13.30
2017-11-28T13:15:56.338Z,13.20
2017-11-28T13:18:25.219Z,13.10
2017-11-28T13:20:53.336Z,13.10
2017-11-28T13:23:21.419Z,13.10
2017-11-28T13:25:49.544Z,13.00
2017-11-28T13:28:18.411Z,12.90
2017-11-28T13:30:46.558Z,12.90
2017-11-28T13:33:14.705Z,12.80
2017-11-28T13:35:42.825Z,12.80
2017-11-28T13:38:10.961Z,12.70
2017-11-28T13:40:39.076Z,12.60
2017-11-28T13:43:07.151Z,12.60
2017-11-28T13:45:35.305Z,12.50
2017-11-28T13:48:03.417Z,12.50
2017-11-28T13:50:32.355Z,12.40
2017-11-28T13:53:00.500Z,12.30
2017-11-28T13:55:29.360Z,12.20
2017-11-28T13:57:57.452Z,12.20
2017-11-28T14:00:25.606Z,12.20
2017-11-28T14:02:53.763Z,12.10
2017-11-28T14:05:21.896Z,12.10
2017-11-28T14:07:49.927Z,12.00
2017-11-28T14:10:18.020Z,11.90
2017-11-28T14:12:46.042Z,11.90
2017-11-28T14:15:14.374Z,11.80
2017-11-28T14:17:42.620Z,11.70
2017-11-28T14:20:15.428Z,11.70
2017-11-28T14:22:49.904Z,11.60
2017-11-28T14:25:23.990Z,11.60
2017-11-28T14:28:02.934Z,11.60
2017-11-28T14:30:34.990Z,11.60
2017-11-28T14:33:05.631Z,11.50
2017-11-28T14:35:39.476Z,11.50
2017-11-28T14:38:07.736Z,11.40
2017-11-28T14:40:36.573Z,11.40
2017-11-28T14:46:10.104Z,11.30
2017-11-28T14:48:46.662Z,11.30
2017-11-28T14:51:29.723Z,11.20
2017-11-28T14:54:04.332Z,11.20
2017-11-28T14:56:32.630Z,11.10
2017-11-28T14:59:06.331Z,11.10
2017-11-28T15:01:36.292Z,11.10
2017-11-28T15:04:10.259Z,11.10
2017-11-28T15:06:44.601Z,11.00
2017-11-28T15:09:22.989Z,11.00
2017-11-28T15:12:00.214Z,11.10
2017-11-28T15:14:30.976Z,11.30
2017-11-28T15:17:15.501Z,11.30
2017-11-28T15:19:46.340Z,11.40
2017-11-28T15:22:32.547Z,11.50
2017-11-28T15:25:21.476Z,11.60
2017-11-28T15:27:51.009Z,11.70
2017-11-28T15:30:20.438Z,11.80
2017-11-28T15:32:49.068Z,11.80
2017-11-28T15:35:17.764Z,11.90
2017-11-28T15:37:45.898Z,11.90
2017-11-28T15:40:14.196Z,12.00
2017-11-28T15:42:43.215Z,12.10
2017-11-28T15:45:11.428Z,12.10
2017-11-28T15:47:39.540Z,12.10
2017-11-28T15:50:07.743Z,12.20
2017-11-28T15:52:35.901Z,12.20
2017-11-28T15:55:04.998Z,12.20
2017-11-28T15:57:33.584Z,12.30
2017-11-28T16:00:01.706Z,12.30
2017-11-28T16:02:29.986Z,12.30
2017-11-28T16:04:59.797Z,12.30
2017-11-28T16:07:28.710Z,12.40
2017-11-28T16:09:57.079Z,12.40
2017-11-28T16:12:26.177Z,12.40
2017-11-28T16:14:54.696Z,12.40
2017-11-28T16:17:23.575Z,12.50
2017-11-28T16:19:51.793Z,12.50
2017-11-28T16:22:20.671Z,12.50
2017-11-28T16:24:48.796Z,12.50
2017-11-28T16:27:16.947Z,12.50
2017-11-28T16:29:45.080Z,12.50
2017-11-28T16:32:13.218Z,12.60
2017-11-28T16:34:41.314Z,12.60
2017-11-28T16:37:09.425Z,12.60
2017-11-28T16:39:38.317Z,12.60
2017-11-28T16:42:07.218Z,12.60
2017-11-28T16:44:35.278Z,12.60
2017-11-28T16:47:04.199Z,12.70
2017-11-28T16:49:32.357Z,12.60
2017-11-28T16:52:00.417Z,12.70
2017-11-28T16:54:29.323Z,12.70
2017-11-28T16:56:57.445Z,12.70
2017-11-28T16:59:25.657Z,12.70
2017-11-28T17:01:53.818Z,12.70
2017-11-28T17:04:22.685Z,12.70
2017-11-28T17:06:51.493Z,12.70
2017-11-28T17:09:20.521Z,12.70
2017-11-28T17:11:48.592Z,12.70
2017-11-28T17:14:17.727Z,12.70
2017-11-28T17:16:46.904Z,12.70
2017-11-28T17:19:15.075Z,12.70
2017-11-28T17:21:43.279Z,12.70
2017-11-28T17:24:11.466Z,12.70
2017-11-28T17:26:40.555Z,12.70
2017-11-28T17:29:08.642Z,12.70
2017-11-28T17:31:36.763Z,12.70
2017-11-28T17:34:04.976Z,12.70
2017-11-28T17:36:33.060Z,12.70
2017-11-28T17:39:01.165Z,12.70
2017-11-28T17:41:29.696Z,12.70
2017-11-28T17:43:57.839Z,12.70
2017-11-28T17:46:25.959Z,12.70
2017-11-28T17:48:54.092Z,12.70
2017-11-28T17:51:22.213Z,12.70
2017-11-28T17:53:51.072Z,12.70
2017-11-28T17:56:19.201Z,12.70
2017-11-28T17:58:47.318Z,12.70
2017-11-28T18:01:15.513Z,12.70
2017-11-28T18:03:43.634Z,12.70
2017-11-28T18:06:11.778Z,12.60
2017-11-28T18:08:40.672Z,12.60
2017-11-28T18:11:09.635Z,12.60
2017-11-28T18:13:37.769Z,12.60
2017-11-28T18:16:06.078Z,12.70
2017-11-28T18:18:34.238Z,12.60
2017-11-28T18:21:02.315Z,12.60
2017-11-28T18:23:30.459Z,12.60
2017-11-28T18:25:58.567Z,12.60
2017-11-28T18:28:26.694Z,12.60
2017-11-28T18:30:54.820Z,12.60
2017-11-28T18:33:22.911Z,12.70
2017-11-28T18:35:50.998Z,12.60
2017-11-28T18:38:19.874Z,12.70
2017-11-28T18:40:47.956Z,12.60
2017-11-28T18:43:16.817Z,12.60
2017-11-28T18:45:44.934Z,12.60
2017-11-28T18:48:13.058Z,12.60
2017-11-28T18:50:41.176Z,12.60
2017-11-28T18:53:10.047Z,12.60
2017-11-28T18:55:38.962Z,12.60
2017-11-28T18:58:07.112Z,12.60
2017-11-28T19:00:35.206Z,12.60
2017-11-28T19:03:03.303Z,12.60
2017-11-28T19:05:31.392Z,12.60
2017-11-28T19:07:59.548Z,12.60
2017-11-28T19:10:27.658Z,12.60
2017-11-28T19:12:55.772Z,12.60
2017-11-28T19:15:23.890Z,12.60
2017-11-28T19:17:51.998Z,12.60
2017-11-28T19:20:20.845Z,12.60
2017-11-28T19:22:49.071Z,12.50
2017-11-28T19:25:17.913Z,12.50
2017-11-28T19:27:46.004Z,12.50
2017-11-28T19:30:14.151Z,12.50
2017-11-28T19:32:42.250Z,12.50
2017-11-28T19:35:10.368Z,12.50
2017-11-28T19:37:38.507Z,12.50
2017-11-28T19:40:06.643Z,12.50
2017-11-28T19:42:34.773Z,12.50
2017-11-28T19:45:03.675Z,12.50
2017-11-28T19:47:31.719Z,12.50
2017-11-28T19:49:59.834Z,12.50
2017-11-28T19:52:27.965Z,12.50
2017-11-28T19:54:56.835Z,12.50
2017-11-28T19:57:24.942Z,12.50
2017-11-28T19:59:53.889Z,12.50
2017-11-28T20:02:21.962Z,12.50
2017-11-28T20:04:50.034Z,12.50
2017-11-28T20:07:18.060Z,12.50
2017-11-28T20:09:46.899Z,12.50
2017-11-28T20:12:15.096Z,12.50
2017-11-28T20:14:43.461Z,12.50
2017-11-28T20:17:11.665Z,12.50
2017-11-28T20:19:40.559Z,12.50
2017-11-28T20:22:09.522Z,12.40
2017-11-28T20:24:37.676Z,12.50
2017-11-28T20:27:05.787Z,12.40
2017-11-28T20:29:33.936Z,12.50
2017-11-28T20:32:02.138Z,12.40
2017-11-28T20:34:31.028Z,12.40
2017-11-28T20:36:59.940Z,12.50
2017-11-28T20:39:28.850Z,12.40
2017-11-28T20:41:56.963Z,12.40
2017-11-28T20:44:25.094Z,12.40
2017-11-28T20:46:53.257Z,12.40
2017-11-28T20:49:26.957Z,12.40
2017-11-28T20:51:55.164Z,12.40
2017-11-28T20:54:23.307Z,12.40
2017-11-28T20:56:51.399Z,12.40
2017-11-28T20:59:19.551Z,12.40
2017-11-28T21:01:47.664Z,12.40
2017-11-28T21:04:15.790Z,12.40
2017-11-28T21:06:45.116Z,12.40
2017-11-28T21:09:13.249Z,12.40
2017-11-28T21:11:42.132Z,12.30
2017-11-28T21:14:10.340Z,12.30
2017-11-28T21:16:38.418Z,12.40
2017-11-28T21:19:06.510Z,12.40
2017-11-28T21:21:34.635Z,12.40
2017-11-28T21:24:03.496Z,12.30
2017-11-28T21:26:31.639Z,12.30
2017-11-28T21:28:59.770Z,12.30
2017-11-28T21:31:28.666Z,12.30
2017-11-28T21:33:57.569Z,12.30
2017-11-28T21:36:25.672Z,12.30
2017-11-28T21:38:53.767Z,12.30
2017-11-28T21:41:21.888Z,12.30
2017-11-28T21:43:49.986Z,12.30
2017-11-28T21:46:18.022Z,12.30
2017-11-28T21:48:46.176Z,12.30
2017-11-28T21:51:14.786Z,12.30
2017-11-28T21:53:44.041Z,12.30
2017-11-28T21:56:12.232Z,12.30
2017-11-28T21:58:40.327Z,12.20
2017-11-28T22:01:09.230Z,12.20
2017-11-28T22:03:37.237Z,12.20
2017-11-28T22:06:05.295Z,12.30
2017-11-28T22:08:33.396Z,12.20
2017-11-28T22:11:01.518Z,12.20
2017-11-28T22:13:29.582Z,12.20
2017-11-28T22:15:58.458Z,12.20
2017-11-28T22:18:27.349Z,12.20
2017-11-28T22:20:56.223Z,12.20
2017-11-28T22:23:24.361Z,12.20
2017-11-28T22:25:52.494Z,12.20
2017-11-28T22:28:21.305Z,12.20
2017-11-28T22:30:49.363Z,12.20
2017-11-28T22:33:18.306Z,12.20
2017-11-28T22:35:46.496Z,12.20
2017-11-28T22:38:14.579Z,12.20
2017-11-28T22:40:43.425Z,12.20
2017-11-28T22:43:11.538Z,12.20
2017-11-28T22:45:39.640Z,12.20
2017-11-28T22:48:07.747Z,12.20
2017-11-28T22:50:35.879Z,12.10
2017-11-28T22:53:03.976Z,12.10
2017-11-28T22:55:32.115Z,12.10
2017-11-28T22:58:01.047Z,12.10
2017-11-28T23:00:29.148Z,12.10
2017-11-28T23:02:57.206Z,12.10
2017-11-28T23:05:25.305Z,12.10
2017-11-28T23:07:53.358Z,12.10
2017-11-28T23:10:21.548Z,12.10
2017-11-28T23:12:49.662Z,12.10
2017-11-28T23:15:17.771Z,12.10
2017-11-28T23:17:45.871Z,12.10
2017-11-28T23:20:13.970Z,12.10
2017-11-28T23:22:42.816Z,12.10
2017-11-28T23:25:10.821Z,12.10
2017-11-28T23:27:39.683Z,12.10
2017-11-28T23:30:07.691Z,12.00
2017-11-28T23:32:36.581Z,12.10
2017-11-28T23:35:05.711Z,12.00
2017-11-28T23:37:34.075Z,12.00
2017-11-28T23:40:02.182Z,12.10
2017-11-28T23:42:31.281Z,12.00
2017-11-28T23:44:59.386Z,12.00
2017-11-28T23:47:28.274Z,12.00
2017-11-28T23:49:56.388Z,12.00
2017-11-28T23:52:25.328Z,12.00
2017-11-28T23:54:53.587Z,12.00
2017-11-28T23:57:21.724Z,12.00
2017-11-28T23:59:49.713Z,12.00
